Time;durP1;ratioP1;P1;durP2;ratioP2;P2;SDS_P1;SDS_P2;PMS_P1;PMS_P2;Temp;Humidity;BMP_temperature;BMP_pressure;BME280_temperature;BME280_humidity;BME280_pressure;Samples;Min_cycle;Max_cycle;Signal;HPM_P1;HPM_P2
2022/09/24 00:00:41;;;;;;;14.63;7.38;;;9.30;99.90;;;;;;5074443;22;20057;-82
2022/09/24 00:03:06;;;;;;;14.30;7.25;;;9.30;99.90;;;;;;5045785;28;20041;-83
2022/09/24 00:05:39;;;;;;;13.93;6.82;;;9.30;99.90;;;;;;5046332;28;20022;-83
2022/09/24 00:08:06;;;;;;;11.10;6.88;;;9.20;99.90;;;;;;5045777;28;20044;-83
2022/09/24 00:10:39;;;;;;;11.27;6.80;;;9.20;99.90;;;;;;5045673;28;20040;-83
2022/09/24 00:13:11;;;;;;;12.85;7.18;;;9.30;99.90;;;;;;5048072;28;20064;-82
2022/09/24 00:15:42;;;;;;;10.65;7.35;;;9.30;99.90;;;;;;5053013;28;20036;-83
2022/09/24 00:18:10;;;;;;;12.60;6.90;;;9.20;99.90;;;;;;5049484;28;20041;-82
2022/09/24 00:20:37;;;;;;;11.48;6.32;;;9.20;99.90;;;;;;5048610;28;20026;-83
2022/09/24 00:23:07;;;;;;;10.88;6.60;;;9.20;99.90;;;;;;5046491;28;20462;-82
2022/09/24 00:28:17;;;;;;;12.45;7.38;;;9.20;99.90;;;;;;5048397;28;20037;-82
2022/09/24 00:30:44;;;;;;;11.70;7.40;;;9.10;99.90;;;;;;5048917;28;20034;-84
2022/09/24 00:33:11;;;;;;;16.63;7.47;;;9.20;99.90;;;;;;5048436;28;20038;-83
2022/09/24 00:35:40;;;;;;;13.95;7.47;;;9.10;99.90;;;;;;5050290;28;20032;-79
2022/09/24 00:38:06;;;;;;;12.15;7.32;;;9.10;99.90;;;;;;5037935;28;20025;-84
2022/09/24 00:40:34;;;;;;;13.95;7.40;;;9.10;99.90;;;;;;5055293;28;20020;-82
2022/09/24 00:43:00;;;;;;;12.07;7.72;;;9.10;99.90;;;;;;5052855;28;20108;-82
2022/09/24 00:45:28;;;;;;;11.25;7.28;;;9.10;99.90;;;;;;5046678;28;20051;-82
2022/09/24 00:47:55;;;;;;;17.55;7.50;;;9.00;99.90;;;;;;5056586;28;20044;-83
2022/09/24 00:50:33;;;;;;;14.00;7.47;;;9.10;99.90;;;;;;5051512;28;20014;-82
2022/09/24 00:53:12;;;;;;;13.23;7.38;;;9.00;99.90;;;;;;5046749;28;20022;-82
2022/09/24 00:55:41;;;;;;;13.23;7.80;;;9.00;99.90;;;;;;5042242;28;20028;-83
2022/09/24 00:58:08;;;;;;;12.88;7.55;;;9.00;99.90;;;;;;5041566;28;20033;-82
2022/09/24 01:00:36;;;;;;;12.43;7.68;;;9.00;99.90;;;;;;5054185;28;20013;-82
2022/09/24 01:03:11;;;;;;;12.57;7.97;;;9.00;99.90;;;;;;5057387;28;20010;-80
2022/09/24 01:05:37;;;;;;;14.82;8.27;;;8.90;99.90;;;;;;5048241;28;20198;-82
2022/09/24 01:08:05;;;;;;;15.75;8.10;;;8.90;99.90;;;;;;5065172;28;20005;-81
2022/09/24 01:11:08;;;;;;;13.70;7.68;;;8.90;99.90;;;;;;5033668;28;20037;-82
2022/09/24 01:13:55;;;;;;;14.75;8.45;;;8.90;99.90;;;;;;5035709;28;20537;-82
2022/09/24 01:17:02;;;;;;;14.57;8.55;;;8.90;99.90;;;;;;5045260;28;20040;-81
2022/09/24 01:19:40;;;;;;;17.83;8.63;;;8.90;99.90;;;;;;5002752;28;20029;-82
2022/09/24 01:22:38;;;;;;;15.20;7.78;;;8.90;99.90;;;;;;5046233;28;20021;-82
2022/09/24 01:25:12;;;;;;;17.90;8.38;;;8.90;99.90;;;;;;5051419;28;20052;-82
2022/09/24 01:28:07;;;;;;;12.30;7.57;;;8.90;99.90;;;;;;5045194;28;20070;-82
2022/09/24 01:30:37;;;;;;;12.32;8.52;;;8.90;99.90;;;;;;5045736;28;20065;-82
2022/09/24 01:33:12;;;;;;;12.50;7.78;;;8.90;99.90;;;;;;5027791;28;20541;-82
2022/09/24 01:35:44;;;;;;;12.85;7.63;;;8.90;99.90;;;;;;5044050;28;20037;-82
2022/09/24 01:38:17;;;;;;;13.73;8.70;;;8.90;99.90;;;;;;5028501;28;20037;-82
2022/09/24 01:40:45;;;;;;;13.95;8.20;;;8.80;99.90;;;;;;5046466;28;20061;-82
2022/09/24 01:43:13;;;;;;;16.92;7.88;;;8.80;99.90;;;;;;5047959;28;20030;-82
2022/09/24 01:45:39;;;;;;;17.85;8.55;;;8.80;99.90;;;;;;5050219;28;20047;-83
2022/09/24 01:48:06;;;;;;;12.68;7.60;;;8.80;99.90;;;;;;5056763;28;20018;-81
2022/09/24 01:50:45;;;;;;;10.82;7.55;;;8.80;99.90;;;;;;5056601;28;20033;-83
2022/09/24 01:53:22;;;;;;;12.25;7.32;;;8.80;99.90;;;;;;5040705;28;20040;-81
2022/09/24 01:56:00;;;;;;;13.68;6.95;;;8.80;99.90;;;;;;5057170;28;20026;-81
2022/09/24 01:58:34;;;;;;;14.23;7.35;;;8.80;99.90;;;;;;5045422;28;20025;-83
2022/09/24 02:01:12;;;;;;;12.07;8.13;;;8.80;99.90;;;;;;5045776;28;20040;-81
2022/09/24 02:03:43;;;;;;;14.80;7.45;;;8.80;99.90;;;;;;5048731;28;20025;-80
2022/09/24 02:06:30;;;;;;;18.30;7.70;;;8.70;99.90;;;;;;5055214;28;20028;-83
2022/09/24 02:08:57;;;;;;;15.00;7.60;;;8.70;99.90;;;;;;5038242;28;20037;-81
2022/09/24 02:11:24;;;;;;;13.88;7.85;;;8.70;99.90;;;;;;5053861;28;20046;-83
2022/09/24 02:13:59;;;;;;;13.98;6.82;;;8.70;99.90;;;;;;5053371;28;20048;-82
2022/09/24 02:16:29;;;;;;;;;;;8.60;99.90;;;;;;5035994;28;20106;-82
2022/09/24 02:19:00;;;;;;;13.57;6.97;;;8.60;99.90;;;;;;5049838;28;19919;-80
2022/09/24 02:21:27;;;;;;;13.45;7.20;;;8.60;99.90;;;;;;5049491;28;20513;-82
2022/09/24 02:24:02;;;;;;;12.57;7.68;;;8.60;99.90;;;;;;5049832;28;20031;-81
2022/09/24 02:26:28;;;;;;;11.05;6.97;;;8.60;99.90;;;;;;5036864;28;20036;-82
2022/09/24 02:28:53;;;;;;;11.43;7.32;;;8.60;99.90;;;;;;5056425;28;20033;-83
2022/09/24 02:31:27;;;;;;;12.90;7.50;;;8.50;99.90;;;;;;5051920;28;20615;-83
2022/09/24 02:36:38;;;;;;;10.80;7.15;;;8.50;99.90;;;;;;5049642;28;20022;-82
2022/09/24 02:39:04;;;;;;;12.55;7.15;;;8.50;99.90;;;;;;5054641;28;20032;-83
2022/09/24 02:41:30;;;;;;;12.52;5.95;;;8.50;99.90;;;;;;5055995;28;20437;-81
2022/09/24 02:43:57;;;;;;;16.35;6.55;;;8.50;99.90;;;;;;5055097;28;20052;-83
2022/09/24 02:46:23;;;;;;;11.05;6.30;;;8.50;99.90;;;;;;5038271;28;20045;-83
2022/09/24 02:48:49;;;;;;;9.25;6.00;;;8.50;99.90;;;;;;5048513;28;20036;-83
2022/09/24 02:51:15;;;;;;;10.77;5.85;;;8.50;99.90;;;;;;5050632;28;20037;-83
2022/09/24 02:53:41;;;;;;;16.00;5.82;;;8.50;99.90;;;;;;5058393;28;20033;-81
2022/09/24 02:56:07;;;;;;;7.80;5.38;;;8.50;99.90;;;;;;5058765;28;20508;-83
2022/09/24 02:58:33;;;;;;;8.80;5.28;;;8.50;99.90;;;;;;5041412;28;20095;-80
2022/09/24 03:00:59;;;;;;;8.63;5.72;;;8.40;99.90;;;;;;5057002;28;20060;-83
2022/09/24 03:03:25;;;;;;;11.45;5.55;;;8.40;99.90;;;;;;5059364;28;20038;-82
2022/09/24 03:05:53;;;;;;;10.32;6.40;;;8.40;99.90;;;;;;5043223;28;20030;-81
2022/09/24 03:08:23;;;;;;;10.63;6.22;;;8.40;99.90;;;;;;5059056;28;20025;-81
2022/09/24 03:10:50;;;;;;;8.40;5.38;;;8.40;99.90;;;;;;5058431;28;20037;-82
2022/09/24 03:13:17;;;;;;;12.05;6.18;;;8.40;99.90;;;;;;5056636;28;20026;-80
2022/09/24 03:15:44;;;;;;;12.27;6.72;;;8.40;99.90;;;;;;5038778;28;20060;-81
2022/09/24 03:18:10;;;;;;;10.07;6.38;;;8.40;99.90;;;;;;5049684;28;20018;-82
2022/09/24 03:20:36;;;;;;;12.50;6.35;;;8.50;99.90;;;;;;5048478;28;20470;-82
2022/09/24 03:23:02;;;;;;;8.68;5.82;;;8.50;99.90;;;;;;5048147;28;20033;-83
2022/09/24 03:25:27;;;;;;;11.93;6.07;;;8.50;99.90;;;;;;5056927;28;20032;-82
2022/09/24 03:27:53;;;;;;;16.75;5.95;;;8.50;99.90;;;;;;5048142;28;20569;-82
2022/09/24 03:33:04;;;;;;;10.07;5.70;;;8.50;99.90;;;;;;5048900;28;20060;-81
2022/09/24 03:35:29;;;;;;;8.25;5.80;;;8.50;99.90;;;;;;5054134;28;20029;-81
2022/09/24 03:37:55;;;;;;;9.77;5.60;;;8.50;99.90;;;;;;5055680;28;20532;-81
2022/09/24 03:40:21;;;;;;;11.35;5.90;;;8.50;99.90;;;;;;5055402;28;20026;-82
2022/09/24 03:42:47;;;;;;;11.20;6.65;;;8.50;99.90;;;;;;5037981;28;20037;-81
2022/09/24 03:45:13;;;;;;;11.60;6.45;;;8.50;99.90;;;;;;5056540;28;20076;-82
2022/09/24 03:47:40;;;;;;;8.50;5.70;;;8.50;99.90;;;;;;5055828;28;20041;-80
2022/09/24 03:50:08;;;;;;;13.38;6.05;;;8.50;99.90;;;;;;5055582;28;20032;-82
2022/09/24 03:52:34;;;;;;;10.00;6.53;;;8.40;99.90;;;;;;5051973;28;20112;-81
2022/09/24 03:55:00;;;;;;;12.73;6.50;;;8.40;99.90;;;;;;5054967;28;20017;-81
2022/09/24 03:57:27;;;;;;;8.80;6.00;;;8.40;99.90;;;;;;5035261;28;20044;-83
2022/09/24 03:59:52;;;;;;;16.48;6.43;;;8.40;99.90;;;;;;5048955;28;20029;-83
2022/09/24 04:02:18;;;;;;;9.75;6.47;;;8.40;99.90;;;;;;5031264;28;20190;-82
2022/09/24 04:04:44;;;;;;;12.85;6.53;;;8.40;99.90;;;;;;5048066;28;20490;-81
2022/09/24 04:07:11;;;;;;;8.48;5.80;;;8.40;99.90;;;;;;5047971;28;20041;-83
2022/09/24 04:09:36;;;;;;;9.25;5.95;;;8.40;99.90;;;;;;5047826;28;20026;-82
2022/09/24 04:12:02;;;;;;;11.63;6.22;;;8.40;99.90;;;;;;5035406;28;20120;-82
2022/09/24 04:14:28;;;;;;;8.70;5.80;;;8.40;99.90;;;;;;5036973;28;20034;-81
2022/09/24 04:16:54;;;;;;;9.90;6.13;;;8.40;99.90;;;;;;5053046;28;20240;-82
2022/09/24 04:19:19;;;;;;;8.90;6.28;;;8.30;99.90;;;;;;5051554;28;20029;-82
2022/09/24 04:21:45;;;;;;;10.80;6.95;;;8.30;99.90;;;;;;5034388;28;20033;-83
2022/09/24 04:24:11;;;;;;;12.25;6.20;;;8.30;99.90;;;;;;5052430;28;20029;-81
2022/09/24 04:26:37;;;;;;;8.60;5.45;;;8.30;99.90;;;;;;5053311;28;20052;-83
2022/09/24 04:29:04;;;;;;;8.23;5.97;;;8.30;99.90;;;;;;5052700;28;20025;-83
2022/09/24 04:31:31;;;;;;;10.55;6.47;;;8.30;99.90;;;;;;5049047;28;20040;-83
2022/09/24 04:33:57;;;;;;;9.85;5.90;;;8.30;99.90;;;;;;5048209;28;20025;-83
2022/09/24 04:36:23;;;;;;;9.05;6.45;;;8.30;99.90;;;;;;5047496;28;20021;-82
2022/09/24 04:38:49;;;;;;;9.00;6.45;;;8.30;99.90;;;;;;5048245;28;20079;-82
2022/09/24 04:41:15;;;;;;;11.48;6.50;;;8.30;99.90;;;;;;5035163;28;20059;-81
2022/09/24 04:43:41;;;;;;;15.48;7.50;;;8.30;99.90;;;;;;5037128;28;20033;-84
2022/09/24 04:46:08;;;;;;;11.32;6.88;;;8.30;99.90;;;;;;5033508;28;20076;-82
2022/09/24 04:48:38;;;;;;;12.50;6.70;;;8.20;99.90;;;;;;5056654;28;20115;-80
2022/09/24 04:51:08;;;;;;;10.38;6.68;;;8.20;99.90;;;;;;5054742;28;20033;-83
2022/09/24 04:53:36;;;;;;;11.07;6.60;;;8.20;99.90;;;;;;5034625;28;20025;-82
2022/09/24 04:56:10;;;;;;;9.55;5.93;;;8.20;99.90;;;;;;5031938;28;20029;-83
2022/09/24 04:58:37;;;;;;;14.13;7.40;;;8.30;99.90;;;;;;5051851;28;20056;-82
2022/09/24 05:01:03;;;;;;;12.95;8.25;;;8.30;99.90;;;;;;5050626;28;20061;-83
2022/09/24 05:03:29;;;;;;;13.38;6.70;;;8.30;99.90;;;;;;5047056;28;20037;-84
2022/09/24 05:05:55;;;;;;;10.40;6.70;;;8.30;99.90;;;;;;5030176;28;20033;-83
2022/09/24 05:08:21;;;;;;;10.07;7.15;;;8.30;99.90;;;;;;5051609;28;20064;-83
2022/09/24 05:10:47;;;;;;;12.40;6.72;;;8.30;99.90;;;;;;5053357;28;20018;-81
2022/09/24 05:13:13;;;;;;;16.65;7.15;;;8.40;99.90;;;;;;5055921;28;20052;-81
2022/09/24 05:15:39;;;;;;;14.60;7.30;;;8.50;99.90;;;;;;5056634;28;20025;-82
2022/09/24 05:18:05;;;;;;;9.52;6.50;;;8.50;99.90;;;;;;5055461;28;20029;-81
2022/09/24 05:20:31;;;;;;;15.70;6.75;;;8.60;99.90;;;;;;5052129;28;20048;-83
2022/09/24 05:22:57;;;;;;;12.85;6.40;;;8.70;99.90;;;;;;5049647;28;20061;-82
2022/09/24 05:25:23;;;;;;;16.83;6.22;;;8.80;99.90;;;;;;5054167;28;20013;-83
2022/09/24 05:27:52;;;;;;;12.77;6.45;;;8.90;99.90;;;;;;5054591;28;20037;-83
2022/09/24 05:30:19;;;;;;;9.85;6.18;;;8.90;99.90;;;;;;5052983;28;20048;-82
2022/09/24 05:32:50;;;;;;;9.68;6.10;;;8.90;99.90;;;;;;5048348;28;20033;-82
2022/09/24 05:35:18;;;;;;;12.82;7.03;;;9.00;99.90;;;;;;5011513;28;20025;-81
2022/09/24 05:37:44;;;;;;;13.93;6.90;;;9.00;99.90;;;;;;5047998;28;20017;-83
2022/09/24 05:43:02;;;;;;;8.95;6.22;;;9.30;99.90;;;;;;5048685;28;20025;-82
2022/09/24 05:45:32;;;;;;;9.85;5.97;;;9.40;99.90;;;;;;5025981;28;20037;-83
2022/09/24 05:48:00;;;;;;;7.68;5.90;;;9.50;99.90;;;;;;5048273;28;20032;-84
2022/09/24 05:50:26;;;;;;;16.42;6.88;;;9.70;99.90;;;;;;5031976;28;20044;-83
2022/09/24 05:52:52;;;;;;;10.93;6.32;;;9.90;99.90;;;;;;5032351;28;20052;-84
2022/09/24 05:55:18;;;;;;;8.77;6.53;;;10.00;99.90;;;;;;5052359;28;20466;-83
2022/09/24 05:57:43;;;;;;;10.05;6.30;;;10.20;99.90;;;;;;5053849;28;20041;-80
2022/09/24 06:00:10;;;;;;;8.90;6.18;;;10.40;99.90;;;;;;5099825;22;20110;-86
2022/09/24 06:02:38;;;;;;;10.00;6.53;;;10.50;99.90;;;;;;5080517;28;20024;-85
2022/09/24 06:05:05;;;;;;;12.30;6.40;;;10.60;99.90;;;;;;5102756;28;20032;-84
2022/09/24 06:07:31;;;;;;;8.52;5.75;;;10.70;99.90;;;;;;5087880;28;20043;-85
2022/09/24 06:09:59;;;;;;;12.73;6.40;;;10.80;99.90;;;;;;5084365;28;20498;-84
2022/09/24 06:12:28;;;;;;;15.65;6.82;;;10.80;99.90;;;;;;5082000;28;20450;-85
2022/09/24 06:14:54;;;;;;;10.93;6.60;;;10.90;99.90;;;;;;5099711;28;20046;-86
2022/09/24 06:17:20;;;;;;;11.13;7.00;;;10.70;99.90;;;;;;5102652;28;20054;-86
2022/09/24 06:19:46;;;;;;;10.07;6.43;;;10.60;99.90;;;;;;5103236;28;20024;-87
2022/09/24 06:22:12;;;;;;;10.90;7.25;;;10.50;99.90;;;;;;5085008;28;20483;-88
2022/09/24 06:24:38;;;;;;;10.00;7.10;;;10.40;99.90;;;;;;5102150;28;20558;-86
2022/09/24 06:27:05;;;;;;;12.63;7.68;;;10.50;99.90;;;;;;5085512;28;20020;-86
2022/09/24 06:29:32;;;;;;;12.63;7.68;;;10.60;99.90;;;;;;5102657;28;20038;-84
2022/09/24 06:31:58;;;;;;;11.93;6.90;;;10.70;99.90;;;;;;5091066;28;20020;-84
2022/09/24 06:34:24;;;;;;;9.02;6.47;;;10.90;99.90;;;;;;5110069;28;20040;-88
2022/09/24 06:36:54;;;;;;;12.43;7.15;;;11.10;99.90;;;;;;5092188;28;20028;-87
2022/09/24 06:39:21;;;;;;;12.25;6.72;;;11.20;99.90;;;;;;5095070;28;20054;-85
2022/09/24 06:41:48;;;;;;;14.90;7.05;;;11.30;99.90;;;;;;5112105;28;20031;-86
2022/09/24 06:44:14;;;;;;;10.05;7.07;;;11.50;99.90;;;;;;5111931;28;20055;-86
2022/09/24 06:46:40;;;;;;;11.90;7.50;;;11.80;99.90;;;;;;5110743;28;20027;-88
2022/09/24 06:49:05;;;;;;;10.50;7.20;;;11.90;99.90;;;;;;5092704;28;20036;-86
2022/09/24 06:51:31;;;;;;;11.32;7.70;;;12.00;99.90;;;;;;5093039;28;20089;-87
2022/09/24 06:53:57;;;;;;;10.85;7.60;;;12.10;99.90;;;;;;5110756;28;20043;-87
2022/09/24 06:56:23;;;;;;;13.20;7.55;;;12.20;99.90;;;;;;5099099;28;20032;-86
2022/09/24 06:58:49;;;;;;;12.45;7.15;;;12.20;99.90;;;;;;5070086;28;20534;-84
2022/09/24 07:01:14;;;;;;;13.90;7.57;;;12.40;99.90;;;;;;5090389;28;20039;-86
2022/09/24 07:03:40;;;;;;;12.73;7.63;;;12.40;99.90;;;;;;5090146;28;20043;-84
2022/09/24 07:06:06;;;;;;;16.52;8.23;;;12.40;99.90;;;;;;5074703;28;20459;-85
2022/09/24 07:08:33;;;;;;;16.88;8.88;;;12.30;99.90;;;;;;5093042;28;20375;-84
2022/09/24 07:10:59;;;;;;;13.55;8.77;;;12.20;99.90;;;;;;5076062;28;20044;-83
2022/09/24 07:13:25;;;;;;;14.15;9.02;;;12.20;99.90;;;;;;5080398;28;20036;-84
2022/09/24 07:15:52;;;;;;;13.02;8.45;;;12.30;99.90;;;;;;5084784;28;20031;-84
2022/09/24 07:18:19;;;;;;;13.75;8.18;;;12.40;99.90;;;;;;5096849;28;20059;-84
2022/09/24 07:20:51;;;;;;;15.13;8.60;;;12.50;99.90;;;;;;5090385;28;20028;-86
2022/09/24 07:23:17;;;;;;;12.65;8.88;;;12.60;99.90;;;;;;5098514;28;20400;-86
2022/09/24 07:25:44;;;;;;;14.50;8.95;;;12.70;99.90;;;;;;5090757;28;20013;-86
2022/09/24 07:28:14;;;;;;;11.70;8.18;;;12.80;99.90;;;;;;5093293;28;20054;-87
2022/09/24 07:30:40;;;;;;;15.55;8.88;;;12.80;99.90;;;;;;5098995;28;20104;-86
2022/09/24 07:33:06;;;;;;;15.55;9.02;;;12.80;99.90;;;;;;5078811;28;20032;-85
2022/09/24 07:35:33;;;;;;;15.10;9.20;;;12.80;99.90;;;;;;5091373;28;20029;-86
2022/09/24 07:38:11;;;;;;;13.68;8.55;;;12.80;99.90;;;;;;5095766;28;20012;-84
2022/09/24 07:40:36;;;;;;;14.90;9.43;;;12.90;99.90;;;;;;5098381;28;20044;-82
2022/09/24 07:43:02;;;;;;;15.00;9.75;;;13.00;99.90;;;;;;5092707;28;20028;-83
2022/09/24 07:45:30;;;;;;;17.33;9.38;;;13.20;99.90;;;;;;5092362;28;20093;-87
2022/09/24 07:47:58;;;;;;;17.05;9.52;;;13.40;99.90;;;;;;5093968;28;20012;-85
2022/09/24 07:50:24;;;;;;;17.92;9.50;;;13.40;99.90;;;;;;5078407;28;20043;-87
2022/09/24 07:52:50;;;;;;;15.75;9.93;;;13.40;99.90;;;;;;5110093;28;20024;-86
2022/09/24 07:55:17;;;;;;;17.38;10.32;;;13.40;99.90;;;;;;5097454;28;20205;-84
2022/09/24 07:57:51;;;;;;;17.27;10.50;;;13.30;99.90;;;;;;5095439;28;20028;-89
2022/09/24 08:00:18;;;;;;;23.85;10.55;;;13.40;99.90;;;;;;5096158;28;20016;-84
2022/09/24 08:02:45;;;;;;;15.70;10.13;;;13.50;99.90;;;;;;5094587;28;20365;-84
2022/09/24 08:05:14;;;;;;;17.27;10.40;;;13.40;99.90;;;;;;5096640;28;20024;-81
2022/09/24 08:07:40;;;;;;;17.92;11.35;;;13.50;99.90;;;;;;5098652;28;20150;-83
2022/09/24 08:10:07;;;;;;;15.38;10.65;;;13.50;99.90;;;;;;5098928;28;20092;-83
2022/09/24 08:12:33;;;;;;;17.77;10.18;;;13.50;99.90;;;;;;5099704;28;20021;-83
2022/09/24 08:14:59;;;;;;;18.08;10.85;;;13.70;99.90;;;;;;5099218;28;20096;-86
2022/09/24 08:17:25;;;;;;;17.50;11.57;;;13.80;99.90;;;;;;5099395;28;20031;-83
2022/09/24 08:19:55;;;;;;;22.95;12.65;;;13.90;99.90;;;;;;5098703;28;20017;-85
2022/09/24 08:22:23;;;;;;;19.23;11.15;;;14.00;99.90;;;;;;5099632;28;20008;-83
2022/09/24 08:24:49;;;;;;;19.35;10.95;;;14.10;99.90;;;;;;5098785;28;20087;-83
2022/09/24 08:27:16;;;;;;;17.33;11.07;;;14.10;99.90;;;;;;5099284;28;20016;-83
2022/09/24 08:29:42;;;;;;;19.60;10.73;;;14.20;99.90;;;;;;5099005;28;20028;-82
2022/09/24 08:32:08;;;;;;;14.38;8.90;;;14.30;99.90;;;;;;5099255;28;20077;-84
2022/09/24 08:34:37;;;;;;;17.95;8.43;;;14.30;99.90;;;;;;5081693;28;20029;-80
2022/09/24 08:37:06;;;;;;;19.05;9.07;;;14.40;99.90;;;;;;5099084;28;20028;-83
2022/09/24 08:39:32;;;;;;;13.45;8.38;;;14.50;99.90;;;;;;5098809;28;20023;-82
2022/09/24 08:42:05;;;;;;;13.57;8.40;;;14.70;99.90;;;;;;5098854;28;20024;-82
2022/09/24 08:47:42;;;;;;;14.00;8.40;;;15.20;99.90;;;;;;5098178;28;20080;-83
2022/09/24 08:50:26;;;;;;;13.05;7.55;;;15.40;99.90;;;;;;5098070;28;20066;-82
2022/09/24 08:53:15;;;;;;;11.98;7.57;;;15.50;99.90;;;;;;5097264;28;20021;-83
2022/09/24 08:55:53;;;;;;;10.18;7.30;;;15.80;99.90;;;;;;5078893;28;20070;-85
2022/09/24 08:58:21;;;;;;;13.45;7.28;;;16.50;99.90;;;;;;5069813;28;20112;-82
2022/09/24 09:00:57;;;;;;;9.43;7.10;;;16.70;99.90;;;;;;5080838;28;20021;-81
2022/09/24 09:03:36;;;;;;;8.80;6.90;;;17.20;99.90;;;;;;5093691;28;20028;-82
2022/09/24 09:06:34;;;;;;;9.65;6.95;;;17.70;99.90;;;;;;5098618;28;20085;-83
2022/09/24 09:09:11;;;;;;;9.50;6.95;;;18.50;99.90;;;;;;5080421;28;20108;-84
2022/09/24 09:11:39;;;;;;;14.93;6.70;;;19.10;99.60;;;;;;5097178;28;20036;-83
2022/09/24 09:14:13;;;;;;;13.38;7.03;;;19.70;98.20;;;;;;5096856;28;20020;-86
2022/09/24 09:17:17;;;;;;;12.23;7.28;;;19.40;97.60;;;;;;5093990;28;20036;-84
2022/09/24 09:19:46;;;;;;;9.77;6.78;;;19.10;98.10;;;;;;5018316;28;20089;-86
2022/09/24 09:22:16;;;;;;;11.23;7.32;;;19.00;97.80;;;;;;5073322;28;20024;-84
2022/09/24 09:24:48;;;;;;;8.68;6.47;;;19.10;97.90;;;;;;5091227;28;20028;-87
2022/09/24 09:27:16;;;;;;;10.93;6.65;;;20.20;96.90;;;;;;5090443;28;20212;-86
2022/09/24 09:29:47;;;;;;;12.43;7.10;;;21.90;94.70;;;;;;5085712;28;20031;-87
2022/09/24 09:32:25;;;;;;;10.93;7.70;;;23.60;91.90;;;;;;5087075;28;20547;-84
2022/09/24 09:34:57;;;;;;;8.68;6.55;;;24.70;87.80;;;;;;5084504;28;20031;-85
2022/09/24 09:37:32;;;;;;;9.90;6.60;;;25.60;84.60;;;;;;5067711;28;20034;-87
2022/09/24 09:40:28;;;;;;;10.07;6.93;;;26.30;79.40;;;;;;5062778;28;20404;-86
2022/09/24 09:43:08;;;;;;;9.40;6.10;;;26.60;77.00;;;;;;5057410;28;20032;-86
2022/09/24 09:46:06;;;;;;;7.90;6.38;;;27.80;74.60;;;;;;5088596;28;20039;-85
2022/09/24 09:48:58;;;;;;;13.75;6.10;;;28.10;71.40;;;;;;5089720;28;20063;-85
2022/09/24 09:51:25;;;;;;;9.05;6.07;;;28.00;69.60;;;;;;5088570;28;20035;-86
2022/09/24 09:53:59;;;;;;;9.27;5.93;;;29.30;68.10;;;;;;5067588;28;20099;-85
2022/09/24 09:56:36;;;;;;;11.27;6.20;;;30.60;65.50;;;;;;5083427;28;20028;-83
2022/09/24 09:59:11;;;;;;;9.52;6.53;;;30.50;63.30;;;;;;5082253;28;20032;-85
2022/09/24 10:01:44;;;;;;;7.07;5.47;;;30.40;62.40;;;;;;5084294;28;20419;-84
2022/09/24 10:04:28;;;;;;;10.80;6.25;;;29.40;62.60;;;;;;5084313;28;20466;-84
2022/09/24 10:07:23;;;;;;;9.82;6.65;;;29.30;62.20;;;;;;5087671;28;20028;-86
2022/09/24 10:10:01;;;;;;;9.77;6.28;;;28.90;62.70;;;;;;5068423;28;20131;-87
2022/09/24 10:12:28;;;;;;;10.65;6.55;;;28.90;62.40;;;;;;5086751;28;20071;-86
2022/09/24 10:15:02;;;;;;;11.93;6.55;;;28.40;62.80;;;;;;5085537;28;20027;-85
2022/09/24 10:17:35;;;;;;;10.27;7.03;;;27.90;64.40;;;;;;5086085;28;20024;-86
2022/09/24 10:20:08;;;;;;;9.65;6.28;;;27.70;64.20;;;;;;5065675;28;20048;-83
2022/09/24 10:22:35;;;;;;;9.07;6.65;;;27.80;63.90;;;;;;5068974;28;20028;-85
2022/09/24 10:25:02;;;;;;;10.10;6.95;;;28.70;62.90;;;;;;5090017;28;20013;-85
2022/09/24 10:27:36;;;;;;;14.85;8.07;;;27.90;63.00;;;;;;5092832;28;20025;-84
2022/09/24 10:32:58;;;;;;;10.77;6.80;;;26.30;65.60;;;;;;5091005;28;20052;-84
2022/09/24 10:35:30;;;;;;;8.90;6.75;;;26.30;65.30;;;;;;5068954;28;20113;-86
2022/09/24 10:37:59;;;;;;;11.70;6.43;;;26.20;65.90;;;;;;5084361;28;20126;-86
2022/09/24 10:40:29;;;;;;;9.40;6.38;;;26.20;65.60;;;;;;5049078;28;20464;-87
2022/09/24 10:43:03;;;;;;;8.98;6.70;;;25.80;66.20;;;;;;5068709;28;20032;-86
2022/09/24 10:45:41;;;;;;;10.68;6.95;;;25.30;67.30;;;;;;5066895;28;20192;-85
2022/09/24 10:48:16;;;;;;;8.30;6.32;;;25.20;67.80;;;;;;5090328;28;20039;-84
2022/09/24 10:51:05;;;;;;;10.70;6.65;;;25.30;67.50;;;;;;5090122;28;20058;-87
2022/09/24 10:54:10;;;;;;;8.90;7.03;;;24.90;68.00;;;;;;5078435;28;20044;-86
2022/09/24 10:56:43;;;;;;;16.88;6.97;;;24.60;68.80;;;;;;5094395;28;20029;-83
2022/09/24 10:59:35;;;;;;;10.88;6.72;;;24.60;69.00;;;;;;5093301;28;20036;-83
2022/09/24 11:02:00;;;;;;;16.08;6.75;;;24.70;69.30;;;;;;5091191;28;20044;-82
2022/09/24 11:04:44;;;;;;;16.65;7.05;;;24.20;70.10;;;;;;5090172;28;20077;-83
2022/09/24 11:07:25;;;;;;;9.38;6.63;;;23.70;71.00;;;;;;5089202;28;20029;-83
2022/09/24 11:10:01;;;;;;;11.95;6.53;;;23.50;71.70;;;;;;5069480;28;20197;-83
2022/09/24 11:12:36;;;;;;;14.40;6.72;;;23.20;72.30;;;;;;5069014;28;20032;-83
2022/09/24 11:15:13;;;;;;;;;;;22.70;73.40;;;;;;5088585;28;20074;-83
2022/09/24 11:18:24;;;;;;;9.57;6.88;;;22.20;74.10;;;;;;5072155;28;19896;-83
2022/09/24 11:21:00;;;;;;;11.48;7.50;;;22.00;75.00;;;;;;5045251;28;20052;-85
2022/09/24 11:23:44;;;;;;;10.93;6.68;;;22.20;74.70;;;;;;5092126;28;20504;-85
2022/09/24 11:26:33;;;;;;;16.50;7.50;;;22.00;75.90;;;;;;5074172;28;20041;-85
2022/09/24 11:29:28;;;;;;;11.68;7.50;;;21.80;76.30;;;;;;5036718;28;20104;-85
2022/09/24 11:32:28;;;;;;;14.68;6.88;;;21.80;76.50;;;;;;5075150;28;20123;-84
2022/09/24 11:35:02;;;;;;;9.68;6.47;;;22.30;76.20;;;;;;5090109;28;20036;-84
2022/09/24 11:37:38;;;;;;;13.15;6.70;;;23.00;74.90;;;;;;5091749;28;20029;-85
2022/09/24 11:40:28;;;;;;;11.75;7.25;;;23.90;73.90;;;;;;5092651;28;20039;-84
2022/09/24 11:43:19;;;;;;;8.18;6.57;;;23.80;72.80;;;;;;5092991;28;20491;-87
2022/09/24 11:45:53;;;;;;;13.18;6.65;;;23.60;73.50;;;;;;5077108;28;20023;-86
2022/09/24 11:48:30;;;;;;;9.60;6.05;;;23.00;74.60;;;;;;5094266;28;20029;-82
2022/09/24 11:51:04;;;;;;;13.48;6.85;;;23.00;75.30;;;;;;5090558;28;20059;-86
2022/09/24 11:53:30;;;;;;;14.55;7.10;;;23.00;74.90;;;;;;5088956;28;20037;-86
2022/09/24 11:56:00;;;;;;;8.52;6.28;;;23.40;74.60;;;;;;5066774;28;20085;-85
2022/09/24 11:58:38;;;;;;;10.38;6.28;;;23.70;73.90;;;;;;5084173;28;20048;-84
2022/09/24 12:01:23;;;;;;;11.23;6.57;;;23.70;74.30;;;;;;5085005;28;20092;-84
2022/09/24 12:04:03;;;;;;;8.93;6.15;;;23.90;73.70;;;;;;5104986;22;21735;-80
2022/09/24 12:06:51;;;;;;;9.00;5.30;;;24.00;73.50;;;;;;5055967;28;20136;-81
2022/09/24 12:09:35;;;;;;;14.23;6.53;;;24.50;72.90;;;;;;5056898;28;20024;-82
2022/09/24 12:12:38;;;;;;;11.10;6.78;;;24.50;72.80;;;;;;5056353;28;20033;-79
2022/09/24 12:15:13;;;;;;;10.43;6.20;;;24.60;72.00;;;;;;5062029;28;20025;-81
2022/09/24 12:17:50;;;;;;;8.18;5.32;;;24.90;72.20;;;;;;5068883;28;20044;-79
2022/09/24 12:20:25;;;;;;;7.50;5.20;;;25.70;70.70;;;;;;5057909;28;20032;-79
2022/09/24 12:23:00;;;;;;;11.15;5.28;;;26.70;69.50;;;;;;5059296;28;20029;-80
2022/09/24 12:25:41;;;;;;;9.07;5.90;;;27.80;68.30;;;;;;5056968;28;20100;-80
2022/09/24 12:32:53;;;;;;;8.10;4.70;;;28.70;66.80;;;;;;5057086;28;20036;-82
2022/09/24 12:34:39;;;;;;;10.07;5.20;;;29.10;65.40;;;;;;5058293;28;20512;-81
2022/09/24 12:37:13;;;;;;;11.00;6.05;;;29.60;65.30;;;;;;5060741;28;20086;-78
2022/09/24 12:39:52;;;;;;;9.30;5.72;;;29.80;64.90;;;;;;5061867;28;20104;-79
2022/09/24 12:42:21;;;;;;;10.07;5.45;;;29.20;65.20;;;;;;5041620;28;20072;-81
2022/09/24 12:44:52;;;;;;;8.65;5.57;;;28.70;65.80;;;;;;5060838;28;20029;-81
2022/09/24 12:47:23;;;;;;;9.43;5.75;;;28.20;66.50;;;;;;5041542;28;20029;-80
2022/09/24 12:50:04;;;;;;;7.78;5.40;;;28.20;66.30;;;;;;5055819;28;20043;-84
2022/09/24 12:52:41;;;;;;;8.85;5.40;;;28.30;66.50;;;;;;5058957;28;20041;-81
2022/09/24 12:55:25;;;;;;;6.88;5.00;;;28.70;65.90;;;;;;5058315;28;20388;-81
2022/09/24 12:58:06;;;;;;;7.90;5.37;;;28.60;65.70;;;;;;5054763;28;20055;-81
2022/09/24 13:00:44;;;;;;;6.10;4.78;;;28.60;66.10;;;;;;5048799;28;20295;-80
2022/09/24 13:03:29;;;;;;;9.13;5.68;;;28.40;66.80;;;;;;5029704;28;20030;-81
2022/09/24 13:05:58;;;;;;;10.07;5.28;;;27.60;66.80;;;;;;5047062;28;20044;-81
2022/09/24 13:08:34;;;;;;;8.68;5.30;;;27.30;67.40;;;;;;5028785;28;20029;-80
2022/09/24 13:11:05;;;;;;;6.65;4.93;;;26.90;67.90;;;;;;5044204;28;20021;-81
2022/09/24 13:13:42;;;;;;;9.00;5.32;;;26.80;68.30;;;;;;5046337;28;20028;-80
2022/09/24 13:16:18;;;;;;;7.65;5.15;;;26.70;68.40;;;;;;5027408;28;20025;-81
2022/09/24 13:18:53;;;;;;;7.40;4.53;;;27.00;68.50;;;;;;5045544;28;20056;-81
2022/09/24 13:21:23;;;;;;;7.53;4.68;;;27.30;67.80;;;;;;5048914;28;20035;-79
2022/09/24 13:23:49;;;;;;;6.68;4.65;;;27.50;67.50;;;;;;5052987;28;20022;-80
2022/09/24 13:26:24;;;;;;;8.10;4.55;;;27.60;67.30;;;;;;5053948;28;20048;-79